sensor_id;sensor_type;location;lat;lon;timestamp;P1;durP1;ratioP1;P2;durP2;ratioP2
60018;SDS011;45870;42.528;26.740;2023-09-19T00:01:28;10.45;;;6.72;;
60018;SDS011;45870;42.528;26.740;2023-09-19T00:03:55;9.65;;;6.70;;
60018;SDS011;45870;42.528;26.740;2023-09-19T00:06:23;10.07;;;6.65;;
60018;SDS011;45870;42.528;26.740;2023-09-19T00:08:51;9.75;;;6.68;;
60018;SDS011;45870;42.528;26.740;2023-09-19T00:11:17;7.70;;;5.63;;
60018;SDS011;45870;42.528;26.740;2023-09-19T00:13:42;8.48;;;5.90;;
60018;SDS011;45870;42.528;26.740;2023-09-19T00:16:09;9.90;;;6.25;;
60018;SDS011;45870;42.528;26.740;2023-09-19T00:18:36;9.70;;;5.50;;
60018;SDS011;45870;42.528;26.740;2023-09-19T00:21:03;9.23;;;5.95;;
60018;SDS011;45870;42.528;26.740;2023-09-19T00:23:32;7.75;;;5.22;;
60018;SDS011;45870;42.528;26.740;2023-09-19T00:25:58;9.63;;;5.72;;
60018;SDS011;45870;42.528;26.740;2023-09-19T00:28:25;7.82;;;5.32;;
60018;SDS011;45870;42.528;26.740;2023-09-19T00:30:51;8.85;;;5.38;;
60018;SDS011;45870;42.528;26.740;2023-09-19T00:33:17;9.18;;;5.70;;
60018;SDS011;45870;42.528;26.740;2023-09-19T00:35:48;7.97;;;5.57;;
60018;SDS011;45870;42.528;26.740;2023-09-19T00:38:13;9.25;;;5.45;;
60018;SDS011;45870;42.528;26.740;2023-09-19T00:40:45;8.30;;;5.63;;
60018;SDS011;45870;42.528;26.740;2023-09-19T00:43:11;7.47;;;5.07;;
60018;SDS011;45870;42.528;26.740;2023-09-19T00:45:37;7.63;;;5.57;;
60018;SDS011;45870;42.528;26.740;2023-09-19T00:48:04;8.50;;;5.80;;
60018;SDS011;45870;42.528;26.740;2023-09-19T00:50:34;7.57;;;5.75;;
60018;SDS011;45870;42.528;26.740;2023-09-19T00:53:00;10.68;;;6.30;;
60018;SDS011;45870;42.528;26.740;2023-09-19T00:55:27;8.02;;;5.43;;
60018;SDS011;45870;42.528;26.740;2023-09-19T00:57:55;9.88;;;6.25;;
60018;SDS011;45870;42.528;26.740;2023-09-19T01:00:22;8.48;;;5.75;;
60018;SDS011;45870;42.528;26.740;2023-09-19T01:02:48;11.52;;;5.90;;
60018;SDS011;45870;42.528;26.740;2023-09-19T01:05:14;9.82;;;5.40;;
60018;SDS011;45870;42.528;26.740;2023-09-19T01:07:40;13.70;;;5.95;;
60018;SDS011;45870;42.528;26.740;2023-09-19T01:10:08;9.07;;;5.57;;
60018;SDS011;45870;42.528;26.740;2023-09-19T01:18:33;9.82;;;5.30;;
60018;SDS011;45870;42.528;26.740;2023-09-19T01:32:03;8.75;;;5.80;;
60018;SDS011;45870;42.528;26.740;2023-09-19T01:34:43;8.75;;;6.00;;
60018;SDS011;45870;42.528;26.740;2023-09-19T01:37:15;14.73;;;6.03;;
60018;SDS011;45870;42.528;26.740;2023-09-19T01:39:46;8.73;;;6.13;;
60018;SDS011;45870;42.528;26.740;2023-09-19T01:52:31;12.38;;;5.85;;
60018;SDS011;45870;42.528;26.740;2023-09-19T01:55:05;8.03;;;5.67;;
60018;SDS011;45870;42.528;26.740;2023-09-19T01:57:40;8.68;;;4.97;;
60018;SDS011;45870;42.528;26.740;2023-09-19T02:00:24;7.72;;;5.53;;
60018;SDS011;45870;42.528;26.740;2023-09-19T02:02:52;7.72;;;5.28;;
60018;SDS011;45870;42.528;26.740;2023-09-19T02:05:23;8.27;;;5.22;;
60018;SDS011;45870;42.528;26.740;2023-09-19T02:07:51;7.93;;;4.80;;
60018;SDS011;45870;42.528;26.740;2023-09-19T02:10:18;12.10;;;4.90;;
60018;SDS011;45870;42.528;26.740;2023-09-19T02:12:43;8.30;;;4.32;;
60018;SDS011;45870;42.528;26.740;2023-09-19T02:15:10;7.55;;;4.63;;
60018;SDS011;45870;42.528;26.740;2023-09-19T02:17:36;9.63;;;5.18;;
60018;SDS011;45870;42.528;26.740;2023-09-19T02:20:01;10.27;;;5.22;;
60018;SDS011;45870;42.528;26.740;2023-09-19T02:22:28;7.10;;;4.65;;
60018;SDS011;45870;42.528;26.740;2023-09-19T02:24:54;9.77;;;4.97;;
60018;SDS011;45870;42.528;26.740;2023-09-19T02:27:23;6.57;;;4.78;;
60018;SDS011;45870;42.528;26.740;2023-09-19T02:29:49;7.07;;;4.60;;
60018;SDS011;45870;42.528;26.740;2023-09-19T02:32:14;7.53;;;4.63;;
60018;SDS011;45870;42.528;26.740;2023-09-19T02:34:43;10.52;;;5.40;;
60018;SDS011;45870;42.528;26.740;2023-09-19T02:37:09;8.35;;;5.20;;
60018;SDS011;45870;42.528;26.740;2023-09-19T02:39:35;9.38;;;5.47;;
60018;SDS011;45870;42.528;26.740;2023-09-19T02:42:01;10.02;;;6.10;;
60018;SDS011;45870;42.528;26.740;2023-09-19T02:44:29;11.05;;;6.03;;
60018;SDS011;45870;42.528;26.740;2023-09-19T02:46:55;9.55;;;5.90;;
60018;SDS011;45870;42.528;26.740;2023-09-19T02:49:22;10.98;;;5.45;;
60018;SDS011;45870;42.528;26.740;2023-09-19T02:51:48;9.68;;;5.82;;
60018;SDS011;45870;42.528;26.740;2023-09-19T02:54:14;7.85;;;5.60;;
60018;SDS011;45870;42.528;26.740;2023-09-19T02:56:41;8.55;;;5.75;;
60018;SDS011;45870;42.528;26.740;2023-09-19T02:59:06;8.73;;;6.15;;
60018;SDS011;45870;42.528;26.740;2023-09-19T03:01:35;9.75;;;5.85;;
60018;SDS011;45870;42.528;26.740;2023-09-19T03:04:02;9.25;;;5.72;;
60018;SDS011;45870;42.528;26.740;2023-09-19T03:06:31;8.60;;;5.57;;
60018;SDS011;45870;42.528;26.740;2023-09-19T03:08:56;9.32;;;5.45;;
60018;SDS011;45870;42.528;26.740;2023-09-19T03:11:25;10.45;;;6.60;;
60018;SDS011;45870;42.528;26.740;2023-09-19T03:13:54;11.80;;;6.38;;
60018;SDS011;45870;42.528;26.740;2023-09-19T03:16:20;9.18;;;6.18;;
60018;SDS011;45870;42.528;26.740;2023-09-19T03:18:50;9.82;;;6.22;;
60018;SDS011;45870;42.528;26.740;2023-09-19T03:21:16;9.55;;;6.38;;
60018;SDS011;45870;42.528;26.740;2023-09-19T03:23:44;13.68;;;6.53;;
60018;SDS011;45870;42.528;26.740;2023-09-19T03:26:11;10.20;;;6.47;;
60018;SDS011;45870;42.528;26.740;2023-09-19T03:28:38;10.00;;;5.63;;
60018;SDS011;45870;42.528;26.740;2023-09-19T03:31:06;9.70;;;6.20;;
60018;SDS011;45870;42.528;26.740;2023-09-19T03:33:32;9.38;;;6.07;;
60018;SDS011;45870;42.528;26.740;2023-09-19T03:35:59;9.20;;;5.63;;
60018;SDS011;45870;42.528;26.740;2023-09-19T03:38:26;9.93;;;6.75;;
60018;SDS011;45870;42.528;26.740;2023-09-19T03:40:53;8.57;;;5.97;;
60018;SDS011;45870;42.528;26.740;2023-09-19T03:43:18;10.57;;;6.38;;
60018;SDS011;45870;42.528;26.740;2023-09-19T03:45:44;8.20;;;5.78;;
60018;SDS011;45870;42.528;26.740;2023-09-19T03:48:11;9.75;;;6.10;;
60018;SDS011;45870;42.528;26.740;2023-09-19T03:50:38;10.63;;;6.15;;
60018;SDS011;45870;42.528;26.740;2023-09-19T03:53:04;9.88;;;6.10;;
60018;SDS011;45870;42.528;26.740;2023-09-19T03:55:31;9.40;;;5.85;;
60018;SDS011;45870;42.528;26.740;2023-09-19T03:57:57;9.32;;;5.90;;
60018;SDS011;45870;42.528;26.740;2023-09-19T04:00:23;10.77;;;6.30;;
60018;SDS011;45870;42.528;26.740;2023-09-19T04:02:52;9.18;;;6.35;;
60018;SDS011;45870;42.528;26.740;2023-09-19T04:05:18;10.18;;;6.43;;
60018;SDS011;45870;42.528;26.740;2023-09-19T04:07:44;10.80;;;6.35;;
60018;SDS011;45870;42.528;26.740;2023-09-19T04:10:10;9.82;;;6.63;;
60018;SDS011;45870;42.528;26.740;2023-09-19T04:12:40;10.40;;;6.40;;
60018;SDS011;45870;42.528;26.740;2023-09-19T04:15:06;11.80;;;7.75;;
60018;SDS011;45870;42.528;26.740;2023-09-19T04:17:32;11.57;;;7.32;;
60018;SDS011;45870;42.528;26.740;2023-09-19T04:19:58;12.07;;;7.05;;
60018;SDS011;45870;42.528;26.740;2023-09-19T04:22:25;14.77;;;7.20;;
60018;SDS011;45870;42.528;26.740;2023-09-19T04:24:51;12.48;;;6.75;;
60018;SDS011;45870;42.528;26.740;2023-09-19T04:27:16;9.85;;;6.72;;
60018;SDS011;45870;42.528;26.740;2023-09-19T04:29:44;8.57;;;6.15;;
60018;SDS011;45870;42.528;26.740;2023-09-19T04:32:09;13.43;;;6.68;;
60018;SDS011;45870;42.528;26.740;2023-09-19T04:34:35;12.35;;;7.10;;
60018;SDS011;45870;42.528;26.740;2023-09-19T04:37:03;14.18;;;6.90;;
60018;SDS011;45870;42.528;26.740;2023-09-19T04:39:29;22.98;;;14.38;;
60018;SDS011;45870;42.528;26.740;2023-09-19T04:41:55;16.17;;;8.52;;
60018;SDS011;45870;42.528;26.740;2023-09-19T04:44:20;14.05;;;7.88;;
60018;SDS011;45870;42.528;26.740;2023-09-19T04:46:46;12.23;;;7.82;;
60018;SDS011;45870;42.528;26.740;2023-09-19T04:49:12;12.07;;;7.20;;
60018;SDS011;45870;42.528;26.740;2023-09-19T04:51:38;12.43;;;7.30;;
60018;SDS011;45870;42.528;26.740;2023-09-19T04:54:05;9.70;;;6.72;;
60018;SDS011;45870;42.528;26.740;2023-09-19T04:56:32;8.25;;;5.97;;
60018;SDS011;45870;42.528;26.740;2023-09-19T04:58:59;14.60;;;6.35;;
60018;SDS011;45870;42.528;26.740;2023-09-19T05:01:25;7.43;;;5.75;;
60018;SDS011;45870;42.528;26.740;2023-09-19T05:03:51;7.50;;;5.40;;
60018;SDS011;45870;42.528;26.740;2023-09-19T05:06:20;6.47;;;5.00;;
60018;SDS011;45870;42.528;26.740;2023-09-19T05:08:49;11.50;;;5.43;;
60018;SDS011;45870;42.528;26.740;2023-09-19T05:11:17;7.72;;;4.93;;
60018;SDS011;45870;42.528;26.740;2023-09-19T05:13:45;6.18;;;4.55;;
60018;SDS011;45870;42.528;26.740;2023-09-19T05:16:10;7.07;;;5.10;;
60018;SDS011;45870;42.528;26.740;2023-09-19T05:18:36;6.35;;;4.55;;
60018;SDS011;45870;42.528;26.740;2023-09-19T05:21:02;7.25;;;4.97;;
60018;SDS011;45870;42.528;26.740;2023-09-19T05:23:28;5.30;;;4.07;;
60018;SDS011;45870;42.528;26.740;2023-09-19T05:25:54;6.68;;;4.10;;
60018;SDS011;45870;42.528;26.740;2023-09-19T05:28:22;8.70;;;4.47;;
60018;SDS011;45870;42.528;26.740;2023-09-19T05:30:48;6.60;;;4.32;;
60018;SDS011;45870;42.528;26.740;2023-09-19T05:33:14;6.95;;;4.22;;
60018;SDS011;45870;42.528;26.740;2023-09-19T05:35:40;7.20;;;3.85;;
60018;SDS011;45870;42.528;26.740;2023-09-19T05:38:07;7.53;;;4.15;;
60018;SDS011;45870;42.528;26.740;2023-09-19T05:40:38;5.63;;;4.03;;
60018;SDS011;45870;42.528;26.740;2023-09-19T05:43:07;7.55;;;4.13;;
60018;SDS011;45870;42.528;26.740;2023-09-19T05:45:33;5.95;;;3.90;;
60018;SDS011;45870;42.528;26.740;2023-09-19T05:48:07;6.03;;;3.60;;
60018;SDS011;45870;42.528;26.740;2023-09-19T05:50:34;5.43;;;3.70;;
60018;SDS011;45870;42.528;26.740;2023-09-19T05:52:59;5.53;;;3.40;;
60018;SDS011;45870;42.528;26.740;2023-09-19T05:55:25;5.63;;;3.83;;
60018;SDS011;45870;42.528;26.740;2023-09-19T05:57:51;5.47;;;3.55;;
60018;SDS011;45870;42.528;26.740;2023-09-19T06:00:19;5.32;;;3.72;;
60018;SDS011;45870;42.528;26.740;2023-09-19T06:02:54;4.45;;;3.30;;
60018;SDS011;45870;42.528;26.740;2023-09-19T06:05:22;8.20;;;3.78;;
60018;SDS011;45870;42.528;26.740;2023-09-19T06:07:49;5.82;;;3.53;;
60018;SDS011;45870;42.528;26.740;2023-09-19T06:10:17;5.22;;;3.60;;
60018;SDS011;45870;42.528;26.740;2023-09-19T06:12:43;6.07;;;3.67;;
60018;SDS011;45870;42.528;26.740;2023-09-19T06:15:14;5.15;;;3.72;;
60018;SDS011;45870;42.528;26.740;2023-09-19T06:17:47;6.90;;;3.25;;
60018;SDS011;45870;42.528;26.740;2023-09-19T06:20:14;4.88;;;3.00;;
60018;SDS011;45870;42.528;26.740;2023-09-19T06:22:42;5.32;;;3.30;;
60018;SDS011;45870;42.528;26.740;2023-09-19T06:25:09;8.90;;;3.60;;
60018;SDS011;45870;42.528;26.740;2023-09-19T06:27:51;7.30;;;3.28;;
60018;SDS011;45870;42.528;26.740;2023-09-19T06:30:18;6.20;;;3.05;;
60018;SDS011;45870;42.528;26.740;2023-09-19T06:32:45;5.55;;;3.33;;
60018;SDS011;45870;42.528;26.740;2023-09-19T06:35:11;5.05;;;2.80;;
60018;SDS011;45870;42.528;26.740;2023-09-19T06:37:39;4.53;;;3.00;;
60018;SDS011;45870;42.528;26.740;2023-09-19T06:40:06;8.10;;;3.30;;
60018;SDS011;45870;42.528;26.740;2023-09-19T06:42:47;5.43;;;2.85;;
60018;SDS011;45870;42.528;26.740;2023-09-19T06:45:15;6.53;;;3.55;;
60018;SDS011;45870;42.528;26.740;2023-09-19T06:47:45;5.68;;;3.13;;
60018;SDS011;45870;42.528;26.740;2023-09-19T06:50:15;4.63;;;2.70;;
60018;SDS011;45870;42.528;26.740;2023-09-19T06:52:44;5.60;;;3.10;;
60018;SDS011;45870;42.528;26.740;2023-09-19T06:55:11;4.95;;;2.70;;
60018;SDS011;45870;42.528;26.740;2023-09-19T06:57:38;4.10;;;2.60;;
60018;SDS011;45870;42.528;26.740;2023-09-19T07:00:06;4.20;;;2.85;;
60018;SDS011;45870;42.528;26.740;2023-09-19T07:02:42;3.42;;;2.53;;
60018;SDS011;45870;42.528;26.740;2023-09-19T07:05:08;5.93;;;3.22;;
60018;SDS011;45870;42.528;26.740;2023-09-19T07:07:36;4.32;;;2.55;;
60018;SDS011;45870;42.528;26.740;2023-09-19T07:10:02;2.88;;;2.33;;
60018;SDS011;45870;42.528;26.740;2023-09-19T07:12:30;6.05;;;2.90;;
60018;SDS011;45870;42.528;26.740;2023-09-19T07:14:58;4.93;;;2.38;;
60018;SDS011;45870;42.528;26.740;2023-09-19T07:17:23;4.03;;;2.33;;
60018;SDS011;45870;42.528;26.740;2023-09-19T07:19:49;5.90;;;2.85;;
60018;SDS011;45870;42.528;26.740;2023-09-19T07:22:15;6.85;;;2.83;;
60018;SDS011;45870;42.528;26.740;2023-09-19T07:24:41;4.45;;;2.50;;
60018;SDS011;45870;42.528;26.740;2023-09-19T07:27:07;3.92;;;2.53;;
60018;SDS011;45870;42.528;26.740;2023-09-19T07:29:33;3.22;;;2.78;;
60018;SDS011;45870;42.528;26.740;2023-09-19T07:31:59;4.50;;;2.65;;
60018;SDS011;45870;42.528;26.740;2023-09-19T07:34:25;4.68;;;2.78;;
60018;SDS011;45870;42.528;26.740;2023-09-19T07:36:51;4.45;;;2.60;;
60018;SDS011;45870;42.528;26.740;2023-09-19T07:39:16;5.05;;;2.42;;
60018;SDS011;45870;42.528;26.740;2023-09-19T07:41:42;4.05;;;2.65;;
60018;SDS011;45870;42.528;26.740;2023-09-19T07:44:08;4.10;;;2.50;;
60018;SDS011;45870;42.528;26.740;2023-09-19T07:46:35;3.80;;;2.30;;
60018;SDS011;45870;42.528;26.740;2023-09-19T07:49:01;4.72;;;2.70;;
60018;SDS011;45870;42.528;26.740;2023-09-19T07:51:26;5.47;;;2.95;;
60018;SDS011;45870;42.528;26.740;2023-09-19T07:53:52;5.50;;;2.60;;
60018;SDS011;45870;42.528;26.740;2023-09-19T07:56:20;4.95;;;2.70;;
60018;SDS011;45870;42.528;26.740;2023-09-19T07:58:47;4.45;;;2.40;;
60018;SDS011;45870;42.528;26.740;2023-09-19T08:01:13;7.50;;;2.60;;
60018;SDS011;45870;42.528;26.740;2023-09-19T08:03:40;3.95;;;2.63;;
60018;SDS011;45870;42.528;26.740;2023-09-19T08:06:07;4.32;;;2.60;;
60018;SDS011;45870;42.528;26.740;2023-09-19T08:08:33;3.50;;;2.22;;
60018;SDS011;45870;42.528;26.740;2023-09-19T08:11:05;6.28;;;2.30;;
60018;SDS011;45870;42.528;26.740;2023-09-19T08:13:41;4.57;;;2.10;;
60018;SDS011;45870;42.528;26.740;2023-09-19T08:16:12;3.10;;;2.28;;
60018;SDS011;45870;42.528;26.740;2023-09-19T08:18:40;3.70;;;2.28;;
60018;SDS011;45870;42.528;26.740;2023-09-19T08:21:06;3.08;;;2.38;;
60018;SDS011;45870;42.528;26.740;2023-09-19T08:23:35;7.65;;;2.60;;
60018;SDS011;45870;42.528;26.740;2023-09-19T08:26:01;4.00;;;2.45;;
60018;SDS011;45870;42.528;26.740;2023-09-19T08:28:32;3.90;;;2.38;;
60018;SDS011;45870;42.528;26.740;2023-09-19T08:31:05;4.38;;;2.47;;
60018;SDS011;45870;42.528;26.740;2023-09-19T08:33:35;4.60;;;2.30;;
60018;SDS011;45870;42.528;26.740;2023-09-19T08:36:02;4.60;;;2.50;;
60018;SDS011;45870;42.528;26.740;2023-09-19T08:38:33;2.58;;;2.08;;
60018;SDS011;45870;42.528;26.740;2023-09-19T08:41:00;7.10;;;2.20;;
60018;SDS011;45870;42.528;26.740;2023-09-19T08:43:29;4.35;;;2.10;;
60018;SDS011;45870;42.528;26.740;2023-09-19T08:48:46;4.88;;;2.22;;
60018;SDS011;45870;42.528;26.740;2023-09-19T08:51:39;5.05;;;2.28;;
60018;SDS011;45870;42.528;26.740;2023-09-19T08:54:22;3.67;;;2.30;;
60018;SDS011;45870;42.528;26.740;2023-09-19T08:56:54;3.67;;;2.25;;
60018;SDS011;45870;42.528;26.740;2023-09-19T08:59:25;3.50;;;1.98;;
60018;SDS011;45870;42.528;26.740;2023-09-19T09:01:54;2.55;;;2.05;;
60018;SDS011;45870;42.528;26.740;2023-09-19T09:04:22;3.95;;;2.05;;
60018;SDS011;45870;42.528;26.740;2023-09-19T09:06:49;4.25;;;2.22;;
60018;SDS011;45870;42.528;26.740;2023-09-19T09:09:18;3.88;;;2.40;;
60018;SDS011;45870;42.528;26.740;2023-09-19T09:11:45;3.78;;;2.13;;
60018;SDS011;45870;42.528;26.740;2023-09-19T09:14:15;4.20;;;2.17;;
60018;SDS011;45870;42.528;26.740;2023-09-19T09:16:41;3.80;;;2.33;;
60018;SDS011;45870;42.528;26.740;2023-09-19T09:19:07;6.47;;;2.40;;
60018;SDS011;45870;42.528;26.740;2023-09-19T09:21:32;4.07;;;2.38;;
60018;SDS011;45870;42.528;26.740;2023-09-19T09:26:53;4.55;;;2.60;;
60018;SDS011;45870;42.528;26.740;2023-09-19T09:29:31;5.15;;;2.40;;
60018;SDS011;45870;42.528;26.740;2023-09-19T09:32:18;3.78;;;2.22;;
60018;SDS011;45870;42.528;26.740;2023-09-19T09:34:45;3.17;;;2.35;;
60018;SDS011;45870;42.528;26.740;2023-09-19T09:37:16;4.03;;;2.15;;
60018;SDS011;45870;42.528;26.740;2023-09-19T09:39:55;2.85;;;2.00;;
60018;SDS011;45870;42.528;26.740;2023-09-19T09:45:13;3.80;;;2.00;;
60018;SDS011;45870;42.528;26.740;2023-09-19T09:47:58;5.10;;;2.42;;
60018;SDS011;45870;42.528;26.740;2023-09-19T09:50:39;4.67;;;2.50;;
60018;SDS011;45870;42.528;26.740;2023-09-19T09:53:22;3.05;;;1.92;;
60018;SDS011;45870;42.528;26.740;2023-09-19T09:58:40;5.53;;;2.35;;
60018;SDS011;45870;42.528;26.740;2023-09-19T10:03:43;5.10;;;2.38;;
60018;SDS011;45870;42.528;26.740;2023-09-19T10:06:14;4.22;;;1.88;;
60018;SDS011;45870;42.528;26.740;2023-09-19T10:09:05;3.58;;;2.35;;
60018;SDS011;45870;42.528;26.740;2023-09-19T10:11:43;2.45;;;2.13;;
60018;SDS011;45870;42.528;26.740;2023-09-19T10:14:11;3.90;;;2.10;;
60018;SDS011;45870;42.528;26.740;2023-09-19T10:16:48;3.40;;;2.08;;
60018;SDS011;45870;42.528;26.740;2023-09-19T10:19:20;4.35;;;2.40;;
60018;SDS011;45870;42.528;26.740;2023-09-19T10:21:50;3.03;;;2.20;;
60018;SDS011;45870;42.528;26.740;2023-09-19T10:24:16;4.50;;;3.17;;
60018;SDS011;45870;42.528;26.740;2023-09-19T10:26:45;3.05;;;1.98;;
60018;SDS011;45870;42.528;26.740;2023-09-19T10:29:13;3.47;;;2.05;;
60018;SDS011;45870;42.528;26.740;2023-09-19T10:31:41;3.25;;;2.30;;
60018;SDS011;45870;42.528;26.740;2023-09-19T10:34:13;5.18;;;2.13;;
60018;SDS011;45870;42.528;26.740;2023-09-19T10:36:40;2.28;;;1.80;;
60018;SDS011;45870;42.528;26.740;2023-09-19T10:39:10;1.90;;;1.67;;
60018;SDS011;45870;42.528;26.740;2023-09-19T10:41:38;3.47;;;2.00;;
60018;SDS011;45870;42.528;26.740;2023-09-19T10:44:05;4.18;;;3.10;;
60018;SDS011;45870;42.528;26.740;2023-09-19T10:46:31;2.30;;;1.90;;
60018;SDS011;45870;42.528;26.740;2023-09-19T10:49:01;3.35;;;2.58;;
60018;SDS011;45870;42.528;26.740;2023-09-19T10:51:39;3.80;;;2.40;;
60018;SDS011;45870;42.528;26.740;2023-09-19T10:54:08;2.53;;;2.00;;
60018;SDS011;45870;42.528;26.740;2023-09-19T10:56:38;2.60;;;2.08;;
60018;SDS011;45870;42.528;26.740;2023-09-19T11:01:48;4.25;;;1.98;;
60018;SDS011;45870;42.528;26.740;2023-09-19T11:04:27;4.95;;;2.05;;
60018;SDS011;45870;42.528;26.740;2023-09-19T11:06:59;3.45;;;1.95;;
60018;SDS011;45870;42.528;26.740;2023-09-19T11:15:01;3.28;;;2.20;;
60018;SDS011;45870;42.528;26.740;2023-09-19T11:17:34;3.15;;;2.08;;
60018;SDS011;45870;42.528;26.740;2023-09-19T11:30:34;3.75;;;2.05;;
60018;SDS011;45870;42.528;26.740;2023-09-19T11:33:20;3.55;;;2.00;;
60018;SDS011;45870;42.528;26.740;2023-09-19T11:36:12;3.25;;;2.22;;
60018;SDS011;45870;42.528;26.740;2023-09-19T11:43:54;2.83;;;2.05;;
60018;SDS011;45870;42.528;26.740;2023-09-19T11:46:25;3.50;;;2.55;;
60018;SDS011;45870;42.528;26.740;2023-09-19T11:48:53;5.95;;;1.92;;
60018;SDS011;45870;42.528;26.740;2023-09-19T11:51:21;2.10;;;1.90;;
60018;SDS011;45870;42.528;26.740;2023-09-19T11:56:21;3.60;;;1.85;;
60018;SDS011;45870;42.528;26.740;2023-09-19T11:58:49;5.03;;;2.13;;
60018;SDS011;45870;42.528;26.740;2023-09-19T12:01:21;3.42;;;2.10;;
60018;SDS011;45870;42.528;26.740;2023-09-19T12:03:52;2.58;;;2.05;;
60018;SDS011;45870;42.528;26.740;2023-09-19T12:06:19;3.85;;;2.28;;
60018;SDS011;45870;42.528;26.740;2023-09-19T12:08:47;4.78;;;2.42;;
60018;SDS011;45870;42.528;26.740;2023-09-19T12:11:14;3.42;;;2.13;;
60018;SDS011;45870;42.528;26.740;2023-09-19T12:13:42;3.10;;;1.85;;
60018;SDS011;45870;42.528;26.740;2023-09-19T12:16:16;4.22;;;2.08;;
60018;SDS011;45870;42.528;26.740;2023-09-19T12:18:49;4.65;;;2.17;;
60018;SDS011;45870;42.528;26.740;2023-09-19T12:21:22;4.20;;;2.08;;
60018;SDS011;45870;42.528;26.740;2023-09-19T12:26:29;4.43;;;2.20;;
60018;SDS011;45870;42.528;26.740;2023-09-19T12:28:59;2.83;;;1.85;;
60018;SDS011;45870;42.528;26.740;2023-09-19T12:31:26;2.97;;;2.08;;
60018;SDS011;45870;42.528;26.740;2023-09-19T12:33:53;2.63;;;1.80;;
60018;SDS011;45870;42.528;26.740;2023-09-19T12:36:21;4.82;;;2.17;;
60018;SDS011;45870;42.528;26.740;2023-09-19T12:38:55;2.55;;;2.08;;
60018;SDS011;45870;42.528;26.740;2023-09-19T12:41:21;2.60;;;1.90;;
60018;SDS011;45870;42.528;26.740;2023-09-19T12:43:47;2.53;;;1.80;;
60018;SDS011;45870;42.528;26.740;2023-09-19T12:46:13;3.17;;;2.10;;
60018;SDS011;45870;42.528;26.740;2023-09-19T12:48:40;2.83;;;1.80;;
60018;SDS011;45870;42.528;26.740;2023-09-19T12:51:12;8.30;;;2.17;;
60018;SDS011;45870;42.528;26.740;2023-09-19T12:53:38;3.25;;;2.15;;
60018;SDS011;45870;42.528;26.740;2023-09-19T12:56:07;4.05;;;2.20;;
60018;SDS011;45870;42.528;26.740;2023-09-19T12:58:47;3.97;;;2.05;;
60018;SDS011;45870;42.528;26.740;2023-09-19T13:01:16;3.33;;;2.20;;
60018;SDS011;45870;42.528;26.740;2023-09-19T13:03:42;4.10;;;1.80;;
60018;SDS011;45870;42.528;26.740;2023-09-19T13:06:08;3.00;;;1.80;;
60018;SDS011;45870;42.528;26.740;2023-09-19T13:08:35;5.25;;;1.75;;
60018;SDS011;45870;42.528;26.740;2023-09-19T13:13:32;3.25;;;1.80;;
60018;SDS011;45870;42.528;26.740;2023-09-19T13:15:58;3.28;;;1.77;;
60018;SDS011;45870;42.528;26.740;2023-09-19T13:18:26;3.85;;;2.08;;
60018;SDS011;45870;42.528;26.740;2023-09-19T13:21:05;5.10;;;2.00;;
60018;SDS011;45870;42.528;26.740;2023-09-19T13:23:35;2.63;;;2.10;;
60018;SDS011;45870;42.528;26.740;2023-09-19T13:26:02;2.58;;;2.15;;
60018;SDS011;45870;42.528;26.740;2023-09-19T13:28:29;8.10;;;2.45;;
60018;SDS011;45870;42.528;26.740;2023-09-19T13:30:55;3.25;;;1.83;;
60018;SDS011;45870;42.528;26.740;2023-09-19T13:33:22;4.18;;;2.00;;
60018;SDS011;45870;42.528;26.740;2023-09-19T13:35:47;4.65;;;2.00;;
60018;SDS011;45870;42.528;26.740;2023-09-19T13:38:13;2.88;;;2.10;;
60018;SDS011;45870;42.528;26.740;2023-09-19T13:40:39;5.78;;;2.20;;
60018;SDS011;45870;42.528;26.740;2023-09-19T13:43:07;2.80;;;1.98;;
60018;SDS011;45870;42.528;26.740;2023-09-19T13:45:33;3.92;;;2.10;;
60018;SDS011;45870;42.528;26.740;2023-09-19T13:47:59;3.55;;;1.90;;
60018;SDS011;45870;42.528;26.740;2023-09-19T13:50:24;2.55;;;2.05;;
60018;SDS011;45870;42.528;26.740;2023-09-19T13:52:54;2.08;;;1.75;;
60018;SDS011;45870;42.528;26.740;2023-09-19T13:55:19;4.90;;;2.20;;
60018;SDS011;45870;42.528;26.740;2023-09-19T13:57:46;3.03;;;2.00;;
60018;SDS011;45870;42.528;26.740;2023-09-19T14:00:15;3.22;;;2.05;;
60018;SDS011;45870;42.528;26.740;2023-09-19T14:02:41;3.65;;;2.00;;
60018;SDS011;45870;42.528;26.740;2023-09-19T14:05:10;3.05;;;2.05;;
60018;SDS011;45870;42.528;26.740;2023-09-19T14:07:40;3.17;;;2.20;;
60018;SDS011;45870;42.528;26.740;2023-09-19T14:10:07;3.53;;;1.95;;
60018;SDS011;45870;42.528;26.740;2023-09-19T14:12:36;3.03;;;2.00;;
60018;SDS011;45870;42.528;26.740;2023-09-19T14:15:02;3.28;;;2.47;;
60018;SDS011;45870;42.528;26.740;2023-09-19T14:17:29;3.67;;;2.05;;
60018;SDS011;45870;42.528;26.740;2023-09-19T14:19:55;2.88;;;2.13;;
60018;SDS011;45870;42.528;26.740;2023-09-19T14:22:20;3.00;;;2.15;;
60018;SDS011;45870;42.528;26.740;2023-09-19T14:24:48;3.38;;;2.22;;
60018;SDS011;45870;42.528;26.740;2023-09-19T14:27:14;3.08;;;2.10;;
60018;SDS011;45870;42.528;26.740;2023-09-19T14:29:40;4.63;;;2.20;;
60018;SDS011;45870;42.528;26.740;2023-09-19T14:32:06;3.78;;;2.20;;
60018;SDS011;45870;42.528;26.740;2023-09-19T14:34:32;4.03;;;2.20;;
60018;SDS011;45870;42.528;26.740;2023-09-19T14:36:58;4.32;;;2.22;;
60018;SDS011;45870;42.528;26.740;2023-09-19T14:39:24;5.68;;;2.20;;
60018;SDS011;45870;42.528;26.740;2023-09-19T14:41:50;4.20;;;2.22;;
60018;SDS011;45870;42.528;26.740;2023-09-19T14:44:16;3.47;;;2.13;;
60018;SDS011;45870;42.528;26.740;2023-09-19T14:46:42;3.30;;;2.67;;
60018;SDS011;45870;42.528;26.740;2023-09-19T14:49:10;8.73;;;2.30;;
60018;SDS011;45870;42.528;26.740;2023-09-19T14:51:37;6.18;;;2.35;;
60018;SDS011;45870;42.528;26.740;2023-09-19T14:54:05;2.72;;;2.35;;
60018;SDS011;45870;42.528;26.740;2023-09-19T14:56:32;3.60;;;2.50;;
60018;SDS011;45870;42.528;26.740;2023-09-19T14:58:58;4.25;;;2.40;;
60018;SDS011;45870;42.528;26.740;2023-09-19T15:01:24;3.83;;;2.38;;
60018;SDS011;45870;42.528;26.740;2023-09-19T15:03:49;5.03;;;2.60;;
60018;SDS011;45870;42.528;26.740;2023-09-19T15:06:15;3.72;;;2.45;;
60018;SDS011;45870;42.528;26.740;2023-09-19T15:08:43;3.50;;;2.40;;
60018;SDS011;45870;42.528;26.740;2023-09-19T15:11:12;5.03;;;2.20;;
60018;SDS011;45870;42.528;26.740;2023-09-19T15:13:41;2.88;;;2.15;;
60018;SDS011;45870;42.528;26.740;2023-09-19T15:16:07;3.55;;;2.30;;
60018;SDS011;45870;42.528;26.740;2023-09-19T15:18:36;5.50;;;2.72;;
60018;SDS011;45870;42.528;26.740;2023-09-19T15:21:04;6.25;;;2.58;;
60018;SDS011;45870;42.528;26.740;2023-09-19T15:23:31;4.28;;;2.58;;
60018;SDS011;45870;42.528;26.740;2023-09-19T15:25:59;4.25;;;2.60;;
60018;SDS011;45870;42.528;26.740;2023-09-19T15:28:26;6.03;;;2.70;;
60018;SDS011;45870;42.528;26.740;2023-09-19T15:31:04;6.85;;;2.70;;
60018;SDS011;45870;42.528;26.740;2023-09-19T15:33:32;2.97;;;2.47;;
60018;SDS011;45870;42.528;26.740;2023-09-19T15:36:04;3.58;;;2.80;;
60018;SDS011;45870;42.528;26.740;2023-09-19T15:44:10;3.20;;;2.58;;
60018;SDS011;45870;42.528;26.740;2023-09-19T15:46:37;4.15;;;2.80;;
60018;SDS011;45870;42.528;26.740;2023-09-19T15:49:03;4.80;;;2.72;;
60018;SDS011;45870;42.528;26.740;2023-09-19T15:51:29;3.80;;;2.50;;
60018;SDS011;45870;42.528;26.740;2023-09-19T15:53:55;3.65;;;2.60;;
60018;SDS011;45870;42.528;26.740;2023-09-19T15:56:22;5.53;;;2.72;;
60018;SDS011;45870;42.528;26.740;2023-09-19T15:58:49;4.57;;;2.85;;